createdAt,value
2018-11-13T00:00:19.381Z,11.97
2018-11-13T00:02:48.730Z,12.00
2018-11-13T00:05:17.510Z,12.00
2018-11-13T00:07:46.359Z,12.03
2018-11-13T00:10:15.281Z,12.02
2018-11-13T00:12:44.575Z,12.03
2018-11-13T00:15:13.878Z,12.00
2018-11-13T00:17:42.674Z,11.93
2018-11-13T00:20:14.557Z,11.89
2018-11-13T00:22:43.989Z,11.91
2018-11-13T00:25:14.667Z,11.91
2018-11-13T00:27:43.890Z,11.84
2018-11-13T00:30:15.398Z,11.83
2018-11-13T00:32:45.030Z,11.84
2018-11-13T00:35:14.881Z,11.81
2018-11-13T00:37:44.195Z,11.80
2018-11-13T00:40:14.059Z,11.80
2018-11-13T00:42:44.156Z,11.76
2018-11-13T00:45:13.053Z,11.73
2018-11-13T00:47:41.895Z,11.70
2018-11-13T00:50:12.495Z,11.69
2018-11-13T00:52:41.920Z,11.72
2018-11-13T00:55:11.043Z,11.70
2018-11-13T00:57:40.639Z,11.73
2018-11-13T01:00:14.056Z,11.74
2018-11-13T01:02:43.275Z,11.77
2018-11-13T01:05:13.799Z,11.77
2018-11-13T01:07:43.476Z,11.77
2018-11-13T01:10:14.058Z,11.78
2018-11-13T01:12:44.171Z,11.77
2018-11-13T01:15:14.518Z,11.75
2018-11-13T01:17:44.610Z,11.70
2018-11-13T01:20:13.879Z,11.67
2018-11-13T01:22:42.683Z,11.65
2018-11-13T01:25:12.755Z,11.63
2018-11-13T01:27:42.017Z,11.63
2018-11-13T01:30:11.849Z,11.59
2018-11-13T01:32:41.516Z,11.52
2018-11-13T01:35:11.922Z,11.52
2018-11-13T01:37:41.007Z,11.50
2018-11-13T01:40:14.346Z,11.48
2018-11-13T01:42:43.588Z,11.50
2018-11-13T01:45:14.022Z,11.47
2018-11-13T01:47:42.930Z,11.48
2018-11-13T01:50:12.425Z,11.45
2018-11-13T01:52:41.310Z,11.43
2018-11-13T01:55:13.019Z,11.41
2018-11-13T01:57:41.890Z,11.40
2018-11-13T02:00:17.894Z,11.41
2018-11-13T02:02:48.122Z,11.39
2018-11-13T02:05:17.718Z,11.39
2018-11-13T02:07:46.816Z,11.42
2018-11-13T02:10:16.036Z,11.46
2018-11-13T02:12:45.010Z,11.49
2018-11-13T02:15:13.950Z,11.53
2018-11-13T02:17:43.317Z,11.53
2018-11-13T02:20:15.511Z,11.51
2018-11-13T02:22:44.878Z,11.46
2018-11-13T02:25:14.985Z,11.47
2018-11-13T02:27:44.087Z,11.44
2018-11-13T02:30:15.325Z,11.45
2018-11-13T02:32:44.685Z,11.46
2018-11-13T02:35:13.994Z,11.48
2018-11-13T02:37:43.018Z,11.50
2018-11-13T02:40:12.068Z,11.52
2018-11-13T02:42:41.177Z,11.55
2018-11-13T02:45:11.999Z,11.54
2018-11-13T02:47:41.269Z,11.49
2018-11-13T02:50:12.065Z,11.50
2018-11-13T02:52:41.258Z,11.57
2018-11-13T02:55:10.888Z,11.58
2018-11-13T02:57:39.681Z,11.60
2018-11-13T03:00:11.084Z,11.55
2018-11-13T03:02:39.943Z,11.47
2018-11-13T03:05:10.653Z,11.39
2018-11-13T03:07:40.095Z,11.38
2018-11-13T03:10:10.627Z,11.39
2018-11-13T03:12:39.448Z,11.33
2018-11-13T03:15:10.157Z,11.31
2018-11-13T03:17:38.946Z,11.31
2018-11-13T03:20:09.956Z,11.35
2018-11-13T03:22:38.932Z,11.39
2018-11-13T03:25:09.962Z,11.40
2018-11-13T03:27:39.412Z,11.43
2018-11-13T03:30:13.048Z,11.44
2018-11-13T03:32:41.848Z,11.37
2018-11-13T03:35:10.639Z,11.33
2018-11-13T03:37:39.730Z,11.29
2018-11-13T03:40:09.393Z,11.29
2018-11-13T03:42:38.199Z,11.31
2018-11-13T03:45:08.090Z,11.32
2018-11-13T03:47:37.060Z,11.31
2018-11-13T03:50:06.532Z,11.33
2018-11-13T03:52:35.286Z,11.36
2018-11-13T03:55:04.757Z,11.33
2018-11-13T03:57:33.837Z,11.32
2018-11-13T04:00:02.679Z,11.30
2018-11-13T04:02:31.526Z,11.20
2018-11-13T04:05:00.370Z,11.12
2018-11-13T04:07:29.438Z,11.11
2018-11-13T04:09:58.263Z,11.09
2018-11-13T04:12:27.069Z,11.11
2018-11-13T04:14:56.491Z,11.17
2018-11-13T04:17:25.274Z,11.18
2018-11-13T04:19:54.122Z,11.16
2018-11-13T04:22:22.894Z,11.10
2018-11-13T04:24:51.692Z,11.09
2018-11-13T04:27:20.455Z,11.04
2018-11-13T04:29:49.282Z,11.02
2018-11-13T04:32:18.334Z,11.00
2018-11-13T04:34:47.079Z,10.96
2018-11-13T04:37:15.924Z,10.93
2018-11-13T04:39:44.989Z,10.93
2018-11-13T04:42:13.726Z,10.94
2018-11-13T04:44:42.499Z,10.94
2018-11-13T04:47:11.561Z,10.99
2018-11-13T04:49:40.341Z,11.03
2018-11-13T04:52:09.284Z,11.03
2018-11-13T04:54:38.014Z,11.08
2018-11-13T04:57:07.131Z,11.08
2018-11-13T04:59:36.217Z,11.04
2018-11-13T05:02:05.102Z,11.04
2018-11-13T05:04:34.249Z,11.09
2018-11-13T05:07:03.192Z,11.11
2018-11-13T05:09:32.273Z,11.12
2018-11-13T05:12:01.118Z,11.13
2018-11-13T05:14:29.936Z,11.06
2018-11-13T05:16:58.883Z,10.86
2018-11-13T05:19:27.954Z,10.86
2018-11-13T05:21:56.796Z,10.80
2018-11-13T05:24:25.903Z,10.82
2018-11-13T05:26:54.758Z,10.84
2018-11-13T05:29:23.549Z,10.83
2018-11-13T05:31:52.394Z,10.90
2018-11-13T05:34:21.121Z,10.90
2018-11-13T05:36:50.268Z,10.94
2018-11-13T05:39:19.027Z,10.89
2018-11-13T05:41:47.899Z,10.83
2018-11-13T05:44:17.302Z,10.81
2018-11-13T05:46:46.675Z,10.75
2018-11-13T05:49:15.576Z,10.77
2018-11-13T05:51:44.419Z,10.80
2018-11-13T05:54:13.184Z,10.84
2018-11-13T05:56:42.220Z,10.86
2018-11-13T05:59:11.312Z,10.83
2018-11-13T06:01:40.429Z,10.77
2018-11-13T06:04:09.266Z,10.75
2018-11-13T06:06:38.225Z,10.72
2018-11-13T06:09:08.182Z,10.76
2018-11-13T06:11:37.064Z,10.68
2018-11-13T06:14:06.395Z,10.62
2018-11-13T06:16:35.457Z,10.56
2018-11-13T06:19:04.558Z,10.56
2018-11-13T06:21:33.428Z,10.54
2018-11-13T06:24:02.262Z,10.58
2018-11-13T06:26:31.895Z,10.59
2018-11-13T06:29:00.803Z,10.62
2018-11-13T06:31:29.661Z,10.65
2018-11-13T06:33:58.940Z,10.56
2018-11-13T06:36:27.800Z,10.53
2018-11-13T06:38:56.759Z,10.50
2018-11-13T06:41:25.468Z,10.52
2018-11-13T06:43:54.321Z,10.57
2018-11-13T06:46:23.382Z,10.54
2018-11-13T06:48:52.263Z,10.56
2018-11-13T06:51:21.105Z,10.50
2018-11-13T06:54:00.821Z,10.49
2018-11-13T06:56:29.687Z,10.55
2018-11-13T06:58:58.517Z,10.58
2018-11-13T07:01:27.578Z,10.65
2018-11-13T07:03:56.423Z,10.70
2018-11-13T07:06:25.526Z,10.74
2018-11-13T07:08:54.352Z,10.76
2018-11-13T07:11:23.689Z,10.81
2018-11-13T07:13:52.450Z,10.80
2018-11-13T07:16:21.605Z,10.81
2018-11-13T07:18:50.426Z,10.86
2018-11-13T07:21:19.593Z,10.89
2018-11-13T07:23:48.429Z,10.94
2018-11-13T07:26:17.253Z,10.98
2018-11-13T07:28:46.538Z,10.99
2018-11-13T07:31:15.696Z,10.94
2018-11-13T07:33:44.514Z,10.90
2018-11-13T07:36:13.415Z,10.83
2018-11-13T07:38:42.261Z,10.83
2018-11-13T07:41:11.178Z,10.82
2018-11-13T07:43:40.097Z,10.87
2018-11-13T07:46:08.913Z,10.80
2018-11-13T07:48:37.781Z,10.77
2018-11-13T07:51:06.584Z,10.72
2018-11-13T07:53:35.898Z,10.74
2018-11-13T07:56:04.736Z,10.74
2018-11-13T07:58:33.561Z,10.75
2018-11-13T08:01:02.369Z,10.78
2018-11-13T08:03:37.217Z,10.83
2018-11-13T08:06:06.594Z,10.87
2018-11-13T08:08:35.388Z,10.89
2018-11-13T08:11:05.156Z,10.92
2018-11-13T08:13:34.821Z,10.98
2018-11-13T08:16:03.627Z,10.98
2018-11-13T08:18:33.008Z,10.94
2018-11-13T08:21:02.155Z,10.96
2018-11-13T08:23:30.993Z,10.99
2018-11-13T08:25:59.796Z,10.99
2018-11-13T08:28:28.671Z,10.97
2018-11-13T08:30:57.539Z,10.99
2018-11-13T08:33:26.341Z,11.00
2018-11-13T08:35:55.144Z,11.04
2018-11-13T08:38:24.274Z,11.08
2018-11-13T08:40:53.063Z,11.10
2018-11-13T08:43:21.903Z,11.10
2018-11-13T08:45:50.654Z,11.09
2018-11-13T08:48:19.830Z,11.08
2018-11-13T08:50:48.755Z,11.08
2018-11-13T08:53:17.588Z,11.11
2018-11-13T08:55:46.478Z,11.09
2018-11-13T08:58:15.568Z,11.12
2018-11-13T09:00:44.662Z,11.13
2018-11-13T09:03:13.525Z,11.15
2018-11-13T09:05:42.333Z,11.16
2018-11-13T09:08:11.198Z,11.18
2018-11-13T09:10:40.991Z,11.19
2018-11-13T09:13:09.791Z,11.22
2018-11-13T09:15:38.669Z,11.22
2018-11-13T09:18:08.321Z,11.23
2018-11-13T09:20:37.020Z,11.20
2018-11-13T09:23:06.135Z,11.20
2018-11-13T09:25:35.211Z,11.15
2018-11-13T09:28:04.141Z,11.16
2018-11-13T09:30:33.750Z,11.18
2018-11-13T09:33:02.442Z,11.20
2018-11-13T09:35:31.238Z,11.22
2018-11-13T09:38:00.054Z,11.23
2018-11-13T09:40:28.912Z,11.23
2018-11-13T09:42:58.072Z,11.26
2018-11-13T09:45:27.217Z,11.28
2018-11-13T09:47:56.108Z,11.27
2018-11-13T09:50:24.924Z,11.29
2018-11-13T09:52:54.040Z,11.34
2018-11-13T09:55:23.641Z,11.35
2018-11-13T09:57:52.442Z,11.33
2018-11-13T10:00:23.254Z,11.34
2018-11-13T10:02:54.379Z,11.40
2018-11-13T10:05:23.491Z,11.42
2018-11-13T10:07:53.137Z,11.46
2018-11-13T10:10:22.252Z,11.45
2018-11-13T10:12:51.082Z,11.45
2018-11-13T10:15:21.982Z,11.44
2018-11-13T10:17:51.607Z,11.36
2018-11-13T10:20:20.777Z,11.37
2018-11-13T10:22:51.283Z,11.38
2018-11-13T10:25:20.440Z,11.34
2018-11-13T10:27:49.818Z,11.36
2018-11-13T10:30:20.891Z,11.38
2018-11-13T10:32:50.394Z,11.36
2018-11-13T10:35:21.388Z,11.35
2018-11-13T10:37:50.211Z,11.36
2018-11-13T10:40:20.138Z,11.37
2018-11-13T10:42:49.176Z,11.39
2018-11-13T10:45:21.955Z,11.37
2018-11-13T10:47:50.750Z,11.41
2018-11-13T10:50:21.490Z,11.45
2018-11-13T10:52:50.401Z,11.51
2018-11-13T10:55:19.340Z,11.51
2018-11-13T10:57:48.433Z,11.51
2018-11-13T11:00:22.899Z,11.51
2018-11-13T11:02:57.120Z,11.50
2018-11-13T11:05:27.099Z,11.53
2018-11-13T11:07:56.257Z,11.59
2018-11-13T11:10:25.402Z,11.66
2018-11-13T11:12:54.880Z,11.70
2018-11-13T11:15:23.785Z,11.73
2018-11-13T11:17:52.692Z,11.76
2018-11-13T11:20:21.729Z,11.77
2018-11-13T11:22:51.233Z,11.71
2018-11-13T11:25:20.393Z,11.67
2018-11-13T11:27:49.337Z,11.68
2018-11-13T11:30:18.379Z,11.66
2018-11-13T11:32:47.743Z,11.71
2018-11-13T11:35:16.991Z,11.66
2018-11-13T11:37:45.884Z,11.67
2018-11-13T11:40:14.725Z,11.67
2018-11-13T11:42:43.802Z,11.65
2018-11-13T11:45:14.229Z,11.68
2018-11-13T11:47:43.277Z,11.70
2018-11-13T11:50:13.268Z,11.70
2018-11-13T11:52:42.414Z,11.71
2018-11-13T11:55:12.014Z,11.72
2018-11-13T11:57:40.842Z,11.70
2018-11-13T12:00:19.051Z,11.72
2018-11-13T12:02:47.813Z,11.74
2018-11-13T12:05:16.734Z,11.73
2018-11-13T12:07:45.551Z,11.75
2018-11-13T12:10:14.719Z,11.72
2018-11-13T12:12:43.533Z,11.79
2018-11-13T12:15:13.495Z,11.86
2018-11-13T12:17:42.885Z,11.91
2018-11-13T12:20:13.041Z,11.92
2018-11-13T12:22:41.955Z,12.07
2018-11-13T12:25:12.945Z,12.23
2018-11-13T12:27:42.149Z,12.54
2018-11-13T12:30:14.021Z,12.64
2018-11-13T12:32:43.280Z,12.55
2018-11-13T12:35:13.938Z,12.47
2018-11-13T12:37:42.708Z,12.44
2018-11-13T12:40:17.306Z,12.54
2018-11-13T12:42:46.994Z,12.72
2018-11-13T12:45:15.896Z,12.89
2018-11-13T12:47:45.330Z,13.06
2018-11-13T12:50:15.273Z,13.12
2018-11-13T12:52:44.177Z,13.15
2018-11-13T12:55:19.280Z,13.13
2018-11-13T12:57:48.492Z,12.95
2018-11-13T13:00:20.584Z,12.86
2018-11-13T13:02:49.497Z,12.83
2018-11-13T13:05:18.366Z,12.75
2018-11-13T13:07:47.836Z,12.81
2018-11-13T13:10:17.949Z,12.85
2018-11-13T13:12:46.810Z,12.96
2018-11-13T13:15:17.103Z,12.97
2018-11-13T13:17:46.263Z,12.98
2018-11-13T13:20:17.489Z,12.86
2018-11-13T13:22:47.299Z,12.82
2018-11-13T13:25:17.353Z,12.82
2018-11-13T13:27:46.323Z,12.92
2018-11-13T13:30:25.332Z,12.95
2018-11-13T13:32:54.233Z,13.00
2018-11-13T13:35:59.759Z,12.92
2018-11-13T13:38:28.768Z,12.80
2018-11-13T13:40:59.217Z,12.70
2018-11-13T13:43:29.030Z,12.63
2018-11-13T13:45:58.387Z,12.55
2018-11-13T13:48:27.836Z,12.52
2018-11-13T13:50:56.796Z,12.48
2018-11-13T13:53:26.543Z,12.43
2018-11-13T13:55:55.487Z,12.33
2018-11-13T13:58:25.022Z,12.32
2018-11-13T14:00:54.356Z,12.29
2018-11-13T14:03:23.044Z,12.36
2018-11-13T14:05:51.990Z,12.43
2018-11-13T14:08:21.387Z,12.49
2018-11-13T14:10:50.234Z,12.44
2018-11-13T14:13:18.986Z,12.40
2018-11-13T14:15:47.883Z,12.34
2018-11-13T14:18:16.758Z,12.25
2018-11-13T14:20:45.628Z,12.28
2018-11-13T14:23:14.473Z,12.26
2018-11-13T14:25:43.371Z,12.22
2018-11-13T14:28:12.567Z,12.20
2018-11-13T14:30:41.378Z,12.19
2018-11-13T14:33:11.448Z,12.15
2018-11-13T14:35:40.391Z,12.12
2018-11-13T14:38:09.271Z,12.12
2018-11-13T14:40:40.533Z,12.08
2018-11-13T14:43:09.903Z,12.07
2018-11-13T14:45:38.730Z,11.98
2018-11-13T14:48:08.290Z,12.00
2018-11-13T14:50:37.570Z,11.99
2018-11-13T14:53:07.054Z,11.96
2018-11-13T14:55:37.330Z,11.91
2018-11-13T14:58:07.495Z,11.91
2018-11-13T15:00:37.142Z,11.90
2018-11-13T15:03:07.545Z,11.88
2018-11-13T15:05:36.516Z,11.88
2018-11-13T15:08:06.824Z,11.88
2018-11-13T15:10:43.547Z,11.84
2018-11-13T15:13:12.857Z,11.84
2018-11-13T15:15:42.056Z,11.79
2018-11-13T15:18:11.280Z,11.81
2018-11-13T15:20:40.788Z,11.79
2018-11-13T15:23:10.846Z,11.76
2018-11-13T15:25:39.806Z,11.77
2018-11-13T15:28:09.646Z,11.81
2018-11-13T15:30:41.030Z,11.75
2018-11-13T15:33:11.427Z,11.56
2018-11-13T15:35:40.610Z,11.47
2018-11-13T15:38:09.837Z,11.39
2018-11-13T15:40:38.906Z,11.33
2018-11-13T15:43:07.806Z,11.26
2018-11-13T15:45:36.572Z,11.26
2018-11-13T15:48:06.912Z,11.19
2018-11-13T15:50:36.920Z,11.19
2018-11-13T15:53:06.329Z,11.13
2018-11-13T15:55:35.398Z,11.07
2018-11-13T15:58:04.839Z,11.06
2018-11-13T16:00:35.978Z,11.05
2018-11-13T16:03:21.588Z,11.03
2018-11-13T16:05:52.862Z,11.06
2018-11-13T16:08:22.129Z,11.02
2018-11-13T16:10:50.995Z,10.94
2018-11-13T16:13:19.858Z,10.88
2018-11-13T16:15:48.720Z,10.90
2018-11-13T16:18:19.177Z,10.89
2018-11-13T16:20:47.999Z,10.89
2018-11-13T16:23:16.947Z,10.89
2018-11-13T16:25:45.876Z,10.92
2018-11-13T16:28:14.769Z,10.95
2018-11-13T16:30:43.836Z,10.93
2018-11-13T16:33:12.620Z,10.95
2018-11-13T16:35:41.493Z,10.93
2018-11-13T16:38:11.725Z,10.97
2018-11-13T16:40:41.207Z,11.00
2018-11-13T16:43:09.722Z,10.94
2018-11-13T16:45:38.508Z,10.91
2018-11-13T16:48:07.768Z,10.94
2018-11-13T16:50:37.704Z,10.90
2018-11-13T16:53:07.340Z,10.93
2018-11-13T16:55:41.582Z,10.94
2018-11-13T16:58:12.275Z,10.90
2018-11-13T17:00:41.222Z,10.87
2018-11-13T17:03:09.979Z,10.73
2018-11-13T17:05:38.868Z,10.70
2018-11-13T17:08:14.962Z,10.60
2018-11-13T17:10:44.348Z,10.68
2018-11-13T17:13:13.345Z,10.71
2018-11-13T17:15:42.564Z,10.66
2018-11-13T17:18:13.598Z,10.65
2018-11-13T17:20:41.185Z,10.60
2018-11-13T17:23:09.948Z,10.50
2018-11-13T17:25:39.508Z,10.45
2018-11-13T17:28:08.724Z,10.44
2018-11-13T17:30:38.042Z,10.39
2018-11-13T17:33:08.598Z,10.34
2018-11-13T17:35:37.434Z,10.34
2018-11-13T17:38:07.034Z,10.38
2018-11-13T17:40:37.127Z,10.25
2018-11-13T17:43:07.124Z,10.31
2018-11-13T17:45:37.825Z,10.22
2018-11-13T17:48:08.814Z,10.19
2018-11-13T17:50:39.139Z,10.16
2018-11-13T17:53:09.235Z,10.17
2018-11-13T17:55:39.149Z,10.07
2018-11-13T17:58:10.251Z,9.99
2018-11-13T18:00:42.047Z,10.01
2018-11-13T18:03:19.047Z,9.88
2018-11-13T18:05:48.874Z,9.83
2018-11-13T18:08:17.786Z,9.82
2018-11-13T18:10:47.351Z,9.76
2018-11-13T18:13:16.198Z,9.77
2018-11-13T18:15:44.971Z,9.70
2018-11-13T18:18:14.486Z,9.70
2018-11-13T18:20:43.702Z,9.69
2018-11-13T18:23:12.562Z,9.74
2018-11-13T18:25:41.401Z,9.63
2018-11-13T18:28:10.382Z,9.53
2018-11-13T18:30:39.826Z,9.49
2018-11-13T18:33:09.467Z,9.45
2018-11-13T18:35:39.376Z,9.40
2018-11-13T18:38:10.042Z,9.37
2018-11-13T18:40:39.060Z,9.39
2018-11-13T18:43:08.267Z,9.40
2018-11-13T18:45:38.727Z,9.41
2018-11-13T18:48:08.095Z,9.31
2018-11-13T18:50:38.422Z,9.39
2018-11-13T18:53:07.499Z,9.42
2018-11-13T18:55:36.504Z,9.39
2018-11-13T18:58:06.107Z,9.37
2018-11-13T19:00:36.404Z,9.33
2018-11-13T19:03:06.732Z,9.25
2018-11-13T19:05:35.811Z,9.18
2018-11-13T19:08:05.048Z,9.18
2018-11-13T19:10:39.765Z,9.19
2018-11-13T19:13:11.986Z,9.22
2018-11-13T19:15:43.460Z,9.22
2018-11-13T19:18:13.691Z,9.21
2018-11-13T19:20:42.830Z,9.21
2018-11-13T19:23:11.692Z,9.19
2018-11-13T19:25:41.157Z,9.19
2018-11-13T19:28:10.264Z,9.19
2018-11-13T19:30:39.322Z,9.21
2018-11-13T19:33:08.373Z,9.17
2018-11-13T19:35:37.752Z,9.19
2018-11-13T19:38:07.151Z,9.22
2018-11-13T19:40:36.442Z,9.19
2018-11-13T19:43:07.024Z,9.14
2018-11-13T19:45:35.887Z,9.07
2018-11-13T19:48:04.954Z,9.11
2018-11-13T19:50:35.613Z,9.13
2018-11-13T19:53:04.743Z,9.18
2018-11-13T19:55:34.527Z,9.17
2018-11-13T19:58:03.430Z,9.22
2018-11-13T20:00:33.600Z,9.19
2018-11-13T20:03:03.754Z,9.07
2018-11-13T20:05:33.197Z,9.06
2018-11-13T20:08:02.513Z,9.03
2018-11-13T20:10:32.488Z,8.99
2018-11-13T20:13:03.200Z,8.98
2018-11-13T20:15:32.959Z,8.96
2018-11-13T20:18:02.052Z,9.00
2018-11-13T20:20:32.050Z,9.03
2018-11-13T20:23:02.468Z,8.99
2018-11-13T20:25:33.278Z,8.99
2018-11-13T20:28:02.492Z,8.95
2018-11-13T20:30:33.593Z,8.97
2018-11-13T20:33:02.588Z,8.98
2018-11-13T20:35:32.418Z,8.98
2018-11-13T20:38:02.484Z,8.95
2018-11-13T20:40:32.934Z,8.96
2018-11-13T20:43:03.271Z,8.94
2018-11-13T20:45:32.310Z,8.91
2018-11-13T20:48:01.405Z,8.89
2018-11-13T20:50:31.948Z,8.93
2018-11-13T20:53:01.050Z,8.86
2018-11-13T20:55:30.383Z,8.89
2018-11-13T20:57:59.762Z,8.85
2018-11-13T21:00:31.841Z,8.79
2018-11-13T21:03:01.127Z,8.76
2018-11-13T21:05:31.749Z,8.78
2018-11-13T21:08:00.772Z,8.74
2018-11-13T21:10:34.243Z,8.71
2018-11-13T21:13:03.977Z,8.72
2018-11-13T21:15:33.041Z,8.74
2018-11-13T21:18:02.106Z,8.71
2018-11-13T21:20:31.050Z,8.71
2018-11-13T21:22:59.999Z,8.67
2018-11-13T21:25:29.022Z,8.69
2018-11-13T21:27:59.658Z,8.69
2018-11-13T21:30:28.652Z,8.61
2018-11-13T21:32:57.489Z,8.61
2018-11-13T21:35:26.596Z,8.59
2018-11-13T21:37:56.520Z,8.56
2018-11-13T21:40:26.568Z,8.54
2018-11-13T21:42:56.079Z,8.53
2018-11-13T21:45:26.300Z,8.58
2018-11-13T21:47:55.187Z,8.55
2018-11-13T21:50:25.765Z,8.48
2018-11-13T21:52:54.746Z,8.46
2018-11-13T21:55:24.753Z,8.44
2018-11-13T21:57:53.646Z,8.43
2018-11-13T22:00:28.529Z,8.52
2018-11-13T22:03:00.574Z,8.52
2018-11-13T22:05:30.294Z,8.52
2018-11-13T22:07:59.304Z,8.44
2018-11-13T22:10:28.119Z,8.38
2018-11-13T22:12:56.935Z,8.42
2018-11-13T22:15:26.848Z,8.42
2018-11-13T22:17:55.780Z,8.47
2018-11-13T22:20:25.163Z,8.47
2018-11-13T22:22:55.414Z,8.50
2018-11-13T22:25:25.165Z,8.55
2018-11-13T22:27:55.198Z,8.58
2018-11-13T22:30:25.526Z,8.56
2018-11-13T22:32:54.360Z,8.56
2018-11-13T22:35:23.499Z,8.58
2018-11-13T22:37:52.656Z,8.58
2018-11-13T22:40:23.663Z,8.58
2018-11-13T22:42:52.833Z,8.58
2018-11-13T22:45:27.996Z,8.59
2018-11-13T22:47:57.440Z,8.63
2018-11-13T22:50:27.767Z,8.57
2018-11-13T22:52:56.731Z,8.55
2018-11-13T22:55:25.515Z,8.54
2018-11-13T22:57:55.401Z,8.58
2018-11-13T23:00:37.536Z,8.52
2018-11-13T23:03:07.569Z,8.55
2018-11-13T23:05:36.354Z,8.59
2018-11-13T23:08:06.779Z,8.58
2018-11-13T23:10:35.611Z,8.53
2018-11-13T23:13:04.854Z,8.51
2018-11-13T23:15:33.335Z,8.52
2018-11-13T23:18:09.082Z,8.58
2018-11-13T23:20:38.041Z,8.62
2018-11-13T23:23:07.050Z,8.61
2018-11-13T23:25:36.131Z,8.65
2018-11-13T23:28:05.336Z,8.61
2018-11-13T23:30:34.186Z,8.65
2018-11-13T23:33:03.026Z,8.65
2018-11-13T23:35:32.177Z,8.66
2018-11-13T23:38:01.325Z,8.69
2018-11-13T23:40:30.239Z,8.68
2018-11-13T23:42:59.253Z,8.70
2018-11-13T23:45:28.188Z,8.73
2018-11-13T23:47:57.050Z,8.78
2018-11-13T23:50:26.296Z,8.78
2018-11-13T23:52:55.001Z,8.77
2018-11-13T23:55:23.924Z,8.77
2018-11-13T23:57:52.746Z,8.77
